Time;durP1;ratioP1;P1;durP2;ratioP2;P2;SDS_P1;SDS_P2;PMS_P1;PMS_P2;Temp;Humidity;BMP_temperature;BMP_pressure;BME280_temperature;BME280_humidity;BME280_pressure;Samples;Min_cycle;Max_cycle;Signal;HPM_P1;HPM_P2
2022/05/31 00:00:27;;;;;;;38.42;20.15;;;;;;;7.02;84.94;101279.81;4937268;29;20024;-45
2022/05/31 00:02:55;;;;;;;43.45;21.23;;;;;;;6.95;85.54;101272.66;4937539;29;20032;-44
2022/05/31 00:05:21;;;;;;;;;;;;;;;7.03;82.90;101272.22;4937165;29;20536;-45
2022/05/31 00:07:46;;;;;;;39.53;21.83;;;;;;;6.91;85.05;101269.91;4937689;28;20006;-46
2022/05/31 00:10:14;;;;;;;38.97;21.55;;;;;;;6.87;85.32;101268.00;4937704;29;20038;-45
2022/05/31 00:12:40;;;;;;;35.10;20.63;;;;;;;6.91;85.15;101271.59;4936872;29;20062;-45
2022/05/31 00:15:07;;;;;;;43.90;22.58;;;;;;;6.89;85.29;101263.84;4937811;29;20029;-45
2022/05/31 00:17:32;;;;;;;35.47;22.00;;;;;;;6.85;85.52;101269.59;4937323;29;20024;-44
2022/05/31 00:19:57;;;;;;;38.47;22.13;;;;;;;6.87;85.67;101264.56;4936635;29;20099;-45
2022/05/31 00:22:25;;;;;;;36.53;21.50;;;;;;;6.81;85.67;101267.69;4937261;29;20071;-44
2022/05/31 00:24:51;;;;;;;35.95;21.73;;;;;;;6.77;85.88;101268.31;4937325;29;20107;-44
2022/05/31 00:27:20;;;;;;;35.65;21.77;;;;;;;6.73;86.04;101266.41;4936876;29;20106;-45
2022/05/31 00:29:47;;;;;;;41.33;21.92;;;;;;;6.70;85.96;101266.22;4937341;29;20027;-44
2022/05/31 00:32:14;;;;;;;37.40;21.25;;;;;;;6.69;86.34;101267.06;4937201;29;20521;-44
2022/05/31 00:34:43;;;;;;;38.47;22.67;;;;;;;6.68;86.34;101268.72;4936402;29;20039;-44
2022/05/31 00:37:09;;;;;;;43.17;23.73;;;;;;;6.71;87.46;101262.88;4937156;29;20028;-44
2022/05/31 00:39:35;;;;;;;42.40;23.58;;;;;;;6.77;87.87;101262.34;4936094;29;20106;-45
2022/05/31 00:42:07;;;;;;;41.40;23.08;;;;;;;6.73;86.99;101262.16;4937357;29;20108;-44
2022/05/31 00:44:34;;;;;;;37.83;21.17;;;;;;;6.75;86.68;101269.91;4936909;29;20043;-44
2022/05/31 00:47:01;;;;;;;37.72;21.80;;;;;;;6.76;86.51;101266.56;4936491;29;20083;-45
2022/05/31 00:49:48;;;;;;;38.25;22.17;;;;;;;6.76;86.02;101269.13;4936724;29;20034;-45
2022/05/31 00:52:17;;;;;;;42.13;22.40;;;;;;;6.73;86.48;101271.53;4937105;29;20032;-44
2022/05/31 00:54:49;;;;;;;38.33;22.48;;;;;;;6.69;87.40;101269.63;4936096;29;20036;-44
2022/05/31 00:57:14;;;;;;;40.22;22.10;;;;;;;6.68;87.19;101272.97;4936969;29;20039;-45
2022/05/31 00:59:45;;;;;;;40.55;23.60;;;;;;;6.63;87.65;101271.84;4936556;29;20024;-46
2022/05/31 01:02:11;;;;;;;37.78;23.13;;;;;;;6.66;87.27;101269.44;4935992;29;20040;-46
2022/05/31 01:04:41;;;;;;;41.70;22.95;;;;;;;6.67;87.92;101268.66;4936244;29;20043;-45
2022/05/31 01:07:06;;;;;;;36.55;22.45;;;;;;;6.65;87.51;101262.53;4936777;29;20040;-45
2022/05/31 01:09:32;;;;;;;39.20;22.55;;;;;;;6.62;87.37;101258.16;4935869;29;20073;-45
2022/05/31 01:11:59;;;;;;;42.97;23.70;;;;;;;6.64;87.79;101273.63;4936484;29;20031;-45
2022/05/31 01:14:26;;;;;;;40.83;22.75;;;;;;;6.62;87.84;101262.41;4935550;29;20028;-48
2022/05/31 01:17:14;;;;;;;39.50;22.50;;;;;;;6.61;86.97;101261.53;4935956;29;20027;-44
2022/05/31 01:22:33;;;;;;;42.63;22.60;;;;;;;6.53;87.88;101260.22;4935656;29;20098;-44
2022/05/31 01:25:13;;;;;;;36.40;22.52;;;;;;;6.49;87.48;101260.88;4936365;29;20146;-44
2022/05/31 01:27:52;;;;;;;41.33;22.83;;;;;;;6.40;87.68;101256.13;4936233;29;20038;-45
2022/05/31 01:30:18;;;;;;;39.80;23.15;;;;;;;6.34;87.77;101255.81;4935407;29;20468;-44
2022/05/31 01:32:55;;;;;;;44.35;24.35;;;;;;;6.31;88.50;101256.53;4936068;29;20075;-44
2022/05/31 01:35:27;;;;;;;40.53;23.27;;;;;;;6.26;88.16;101251.19;4936026;29;20062;-45
2022/05/31 01:37:59;;;;;;;46.60;24.35;;;;;;;6.26;88.24;101247.72;4935398;29;20055;-44
2022/05/31 01:40:44;;;;;;;46.00;24.80;;;;;;;6.22;88.25;101249.25;4936055;29;20019;-46
2022/05/31 01:43:09;;;;;;;42.25;24.80;;;;;;;6.25;88.90;101245.97;4935439;29;20027;-45
2022/05/31 01:45:43;;;;;;;45.00;25.15;;;;;;;6.23;89.04;101248.44;4935725;29;20087;-44
2022/05/31 01:48:09;;;;;;;46.83;24.20;;;;;;;6.20;89.10;101245.72;4936135;29;20171;-45
2022/05/31 01:50:35;;;;;;;41.45;23.60;;;;;;;6.17;88.29;101248.13;4935145;29;20115;-45
2022/05/31 01:53:01;;;;;;;42.97;25.75;;;;;;;6.21;89.87;101244.94;4936040;29;20032;-45
2022/05/31 01:55:26;;;;;;;46.00;25.15;;;;;;;6.18;89.82;101247.31;4935545;29;20024;-45
2022/05/31 01:57:58;;;;;;;47.33;25.75;;;;;;;6.19;89.94;101255.88;4935209;29;20111;-44
2022/05/31 02:00:24;;;;;;;45.88;26.70;;;;;;;6.20;90.09;101253.41;4935660;29;20114;-45
2022/05/31 02:02:51;;;;;;;49.15;26.17;;;;;;;6.24;90.98;101249.34;4935715;29;20104;-44
2022/05/31 02:05:18;;;;;;;43.05;24.30;;;;;;;6.22;90.58;101245.81;4935124;29;20032;-44
2022/05/31 02:07:55;;;;;;;47.08;25.67;;;;;;;6.19;89.97;101238.84;4935491;29;20387;-46
2022/05/31 02:10:21;;;;;;;48.45;26.98;;;;;;;6.20;90.10;101243.16;4935639;29;20062;-45
2022/05/31 02:12:47;;;;;;;44.63;25.45;;;;;;;6.19;90.17;101241.41;4935053;29;20118;-46
2022/05/31 02:15:13;;;;;;;46.65;25.73;;;;;;;6.16;89.88;101237.78;4935637;29;20111;-43
2022/05/31 02:17:38;;;;;;;45.25;24.02;;;;;;;6.09;89.62;101237.47;4935293;29;20035;-45
2022/05/31 02:20:03;;;;;;;42.90;23.60;;;;;;;6.07;89.10;101238.19;4934865;29;20492;-44
2022/05/31 02:22:30;;;;;;;39.75;23.23;;;;;;;6.05;89.21;101234.66;4935303;29;20030;-44
2022/05/31 02:24:55;;;;;;;44.25;24.88;;;;;;;6.00;89.57;101234.41;4936991;29;20051;-44
2022/05/31 02:27:21;;;;;;;47.45;25.45;;;;;;;5.98;90.32;101236.00;4939439;29;20028;-44
2022/05/31 02:29:46;;;;;;;54.45;27.13;;;;;;;6.01;90.92;101235.28;4939271;29;20038;-44
2022/05/31 02:32:14;;;;;;;47.13;26.23;;;;;;;6.06;90.71;101232.19;4938988;29;20032;-44
2022/05/31 02:34:41;;;;;;;;;;;;;;;6.14;88.48;101234.28;4939597;29;20399;-45
2022/05/31 02:37:08;;;;;;;44.33;25.55;;;;;;;6.18;90.66;101229.38;4939589;29;19941;-45
2022/05/31 02:39:33;;;;;;;45.85;26.90;;;;;;;6.21;91.15;101224.47;4938446;29;20028;-44
2022/05/31 02:41:58;;;;;;;48.22;26.10;;;;;;;6.26;90.72;101228.13;4939206;29;20118;-44
2022/05/31 02:44:24;;;;;;;47.17;25.02;;;;;;;6.28;91.02;101229.91;4938783;29;20391;-44
2022/05/31 02:46:49;;;;;;;47.40;25.90;;;;;;;6.30;90.81;101218.06;4938597;29;20073;-45
2022/05/31 02:49:15;;;;;;;46.05;27.25;;;;;;;6.33;90.59;101216.53;4939322;29;20027;-44
2022/05/31 02:51:43;;;;;;;47.92;25.98;;;;;;;6.39;90.44;101223.66;4938765;29;20024;-45
2022/05/31 02:54:11;;;;;;;49.72;27.45;;;;;;;6.44;90.94;101227.34;4938357;29;20079;-44
2022/05/31 02:56:36;;;;;;;45.97;26.45;;;;;;;6.53;90.33;101227.84;4938892;29;20027;-44
2022/05/31 02:59:02;;;;;;;46.63;24.95;;;;;;;6.58;89.82;101222.94;4938953;29;20047;-46
2022/05/31 03:01:33;;;;;;;45.47;25.75;;;;;;;6.58;90.60;101228.06;4938140;29;20212;-44
2022/05/31 03:03:58;;;;;;;47.53;26.17;;;;;;;6.61;90.63;101224.78;4939020;29;20035;-44
2022/05/31 03:06:24;;;;;;;51.67;26.48;;;;;;;6.64;90.25;101222.41;4938670;29;20071;-44
2022/05/31 03:08:51;;;;;;;44.17;24.05;;;;;;;6.66;89.47;101223.34;4938060;29;20468;-45
2022/05/31 03:11:44;;;;;;;43.53;24.95;;;;;;;6.70;89.09;101225.25;4938854;29;20472;-44
2022/05/31 03:14:22;;;;;;;45.90;23.95;;;;;;;6.72;88.62;101228.78;4938244;29;20031;-44
2022/05/31 03:16:53;;;;;;;45.60;24.33;;;;;;;6.76;88.58;101223.00;4938812;29;20040;-45
2022/05/31 03:19:26;;;;;;;44.92;24.85;;;;;;;6.80;88.17;101224.91;4938413;29;20492;-47
2022/05/31 03:21:55;;;;;;;43.30;23.77;;;;;;;6.84;89.14;101214.03;4937827;29;20042;-44
2022/05/31 03:24:26;;;;;;;42.97;24.08;;;;;;;6.86;88.66;101207.28;4938164;29;20060;-45
2022/05/31 03:26:55;;;;;;;47.00;24.25;;;;;;;6.88;88.67;101210.84;4938543;29;20118;-45
2022/05/31 03:29:20;;;;;;;41.00;23.40;;;;;;;6.90;88.24;101216.91;4937620;29;20035;-45
2022/05/31 03:31:45;;;;;;;42.72;25.10;;;;;;;6.96;88.49;101218.00;4938228;29;20028;-44
2022/05/31 03:34:11;;;;;;;42.13;23.52;;;;;;;6.99;88.02;101215.63;4938352;29;20063;-44
2022/05/31 03:36:36;;;;;;;44.05;23.65;;;;;;;7.02;88.87;101216.66;4936225;29;20054;-44
2022/05/31 03:39:02;;;;;;;37.05;23.83;;;;;;;7.06;88.41;101216.00;4938392;29;20067;-44
2022/05/31 03:41:31;;;;;;;41.88;24.08;;;;;;;7.07;88.55;101214.31;4938134;29;20118;-44
2022/05/31 03:43:56;;;;;;;50.70;24.98;;;;;;;7.07;88.40;101207.47;4937420;29;20035;-44
2022/05/31 03:46:22;;;;;;;41.33;25.10;;;;;;;7.09;89.68;101210.16;4937759;29;20035;-45
2022/05/31 03:48:48;;;;;;;42.03;25.17;;;;;;;7.12;91.32;101212.84;4938015;29;20143;-44
2022/05/31 03:51:13;;;;;;;41.47;25.30;;;;;;;7.15;91.56;101210.41;4937233;29;20118;-44
2022/05/31 03:53:38;;;;;;;39.65;25.30;;;;;;;7.16;91.78;101201.94;4938030;29;20043;-45
2022/05/31 03:56:06;;;;;;;44.97;25.98;;;;;;;7.19;91.22;101216.59;4937915;29;20059;-45
2022/05/31 03:58:32;;;;;;;47.33;25.08;;;;;;;7.21;91.13;101215.00;4936981;29;20028;-45
2022/05/31 04:00:58;;;;;;;43.65;25.40;;;;;;;7.25;90.50;101211.75;4937877;29;20086;-45
2022/05/31 04:03:23;;;;;;;51.90;25.45;;;;;;;7.30;90.61;101209.44;4936877;29;20059;-45
2022/05/31 04:05:49;;;;;;;44.63;25.13;;;;;;;7.32;89.69;101208.72;4937660;29;20115;-44
2022/05/31 04:08:15;;;;;;;44.05;24.80;;;;;;;7.36;89.39;101215.75;4937733;29;20372;-45
2022/05/31 04:10:42;;;;;;;45.53;24.80;;;;;;;7.40;89.21;101206.50;4936891;29;20028;-44
2022/05/31 04:13:08;;;;;;;51.13;25.60;;;;;;;7.43;89.81;101209.22;4937787;29;20061;-45
2022/05/31 04:15:34;;;;;;;45.22;24.92;;;;;;;7.46;91.53;101209.34;4937438;29;20484;-44
2022/05/31 04:17:59;;;;;;;44.50;27.08;;;;;;;7.49;91.90;101211.19;4936820;29;20060;-49
2022/05/31 04:20:25;;;;;;;49.75;28.33;;;;;;;7.52;92.23;101207.09;4937009;29;20510;-44
2022/05/31 04:22:51;;;;;;;42.88;25.13;;;;;;;7.54;91.85;101205.50;4937605;29;20031;-45
2022/05/31 04:25:16;;;;;;;44.97;25.02;;;;;;;7.61;90.86;101205.78;4936950;29;20112;-44
2022/05/31 04:27:41;;;;;;;44.08;25.10;;;;;;;7.63;90.62;101199.91;4937338;29;20036;-44
2022/05/31 04:30:07;;;;;;;46.10;25.35;;;;;;;7.67;90.45;101204.38;4937245;29;20111;-44
2022/05/31 04:32:33;;;;;;;45.47;26.17;;;;;;;7.71;89.69;101208.84;4936369;29;20067;-46
2022/05/31 04:34:58;;;;;;;45.50;24.75;;;;;;;7.78;88.65;101201.44;4937162;29;20122;-44
2022/05/31 04:37:23;;;;;;;37.60;23.73;;;;;;;7.87;89.10;101207.00;4937069;29;20031;-45
2022/05/31 04:39:49;;;;;;;48.28;23.38;;;;;;;7.94;88.11;101210.72;4936387;29;20036;-45
2022/05/31 04:42:16;;;;;;;42.90;23.00;;;;;;;8.02;87.03;101209.41;4937159;29;20480;-45
2022/05/31 04:44:41;;;;;;;40.63;22.53;;;;;;;8.11;86.91;101204.69;4936727;29;20562;-44
2022/05/31 04:47:07;;;;;;;39.95;22.83;;;;;;;8.20;85.89;101205.09;4936012;29;20410;-45
2022/05/31 04:49:32;;;;;;;48.35;24.00;;;;;;;8.28;85.91;101212.28;4936647;29;20064;-44
2022/05/31 04:51:58;;;;;;;42.85;23.15;;;;;;;8.37;86.09;101207.53;4937134;29;20028;-45
2022/05/31 04:54:24;;;;;;;47.67;23.65;;;;;;;8.42;86.85;101200.91;4936011;29;20043;-45
2022/05/31 04:56:52;;;;;;;42.75;21.85;;;;;;;8.49;85.58;101196.94;4936947;29;20103;-45
2022/05/31 04:59:19;;;;;;;47.60;24.40;;;;;;;8.56;85.80;101205.00;4936821;29;20032;-45
2022/05/31 05:01:44;;;;;;;41.42;22.60;;;;;;;8.62;85.82;101208.63;4935678;29;20034;-44
2022/05/31 05:04:10;;;;;;;41.83;23.42;;;;;;;8.66;85.22;101205.38;4936577;29;20020;-44
2022/05/31 05:06:36;;;;;;;41.22;24.33;;;;;;;8.72;85.44;101200.53;4935840;29;20190;-44
2022/05/31 05:09:01;;;;;;;47.45;23.17;;;;;;;8.80;85.66;101196.56;4936693;29;20523;-44
2022/05/31 05:11:26;;;;;;;43.78;23.83;;;;;;;8.88;84.20;101197.78;4936399;29;20031;-44
2022/05/31 05:13:56;;;;;;;46.60;23.73;;;;;;;8.95;83.44;101198.03;4935766;29;20020;-44
2022/05/31 05:16:21;;;;;;;45.05;24.88;;;;;;;9.02;83.90;101192.34;4936271;29;20067;-44
2022/05/31 05:18:47;;;;;;;55.50;28.35;;;;;;;9.05;83.02;101192.44;4936707;29;20074;-45
2022/05/31 05:21:14;;;;;;;53.78;29.73;;;;;;;9.10;83.18;101198.66;4935377;29;20129;-44
2022/05/31 05:23:40;;;;;;;62.33;31.02;;;;;;;9.18;83.04;101194.72;4936323;29;20035;-45
2022/05/31 05:26:05;;;;;;;71.30;35.30;;;;;;;9.26;83.11;101189.00;4936518;29;20036;-44
2022/05/31 05:31:21;;;;;;;61.63;31.23;;;;;;;9.39;84.03;101191.25;4936186;29;20070;-44
2022/05/31 05:33:47;;;;;;;59.03;32.20;;;;;;;9.46;84.24;101194.94;4936342;29;20067;-44
2022/05/31 05:36:13;;;;;;;78.10;35.65;;;;;;;9.52;83.73;101203.78;4935583;29;20070;-47
2022/05/31 05:38:38;;;;;;;66.55;34.83;;;;;;;9.66;82.54;101195.75;4935842;29;20488;-45
2022/05/31 05:41:03;;;;;;;77.13;37.17;;;;;;;9.74;82.75;101190.91;4936023;29;20476;-45
2022/05/31 05:43:28;;;;;;;74.32;37.40;;;;;;;9.79;81.13;101191.94;4934908;29;20047;-44
2022/05/31 05:45:54;;;;;;;70.28;34.60;;;;;;;9.97;80.99;101196.94;4935825;29;20031;-44
2022/05/31 05:48:19;;;;;;;76.85;37.35;;;;;;;10.03;81.15;101199.69;4935847;29;20035;-45
2022/05/31 05:50:44;;;;;;;80.00;36.40;;;;;;;10.09;79.47;101192.22;4935244;29;20023;-45
2022/05/31 05:53:10;;;;;;;79.32;36.22;;;;;;;10.16;79.00;101199.34;4935982;29;20035;-45
2022/05/31 05:55:37;;;;;;;71.10;33.83;;;;;;;10.18;80.37;101192.53;4935682;29;20067;-44
2022/05/31 05:58:06;;;;;;;70.28;33.67;;;;;;;10.24;78.71;101191.00;4934938;29;20476;-44
2022/05/31 06:00:32;;;;;;;69.68;33.28;;;;;;;10.29;78.40;101199.78;4935129;29;20035;-45
2022/05/31 06:03:24;;;;;;;62.83;32.17;;;;;;;10.41;78.31;101194.25;4935168;29;20046;-44
2022/05/31 06:05:51;;;;;;;59.50;31.55;;;;;;;10.49;78.14;101196.25;4935623;29;20074;-45
2022/05/31 06:08:27;;;;;;;53.65;29.38;;;;;;;10.64;77.91;101184.72;4935764;29;20044;-45
2022/05/31 06:11:00;;;;;;;62.88;29.30;;;;;;;10.76;77.12;101187.75;4935085;29;20063;-45
2022/05/31 06:13:32;;;;;;;55.55;29.33;;;;;;;10.78;77.28;101193.84;4935574;29;20070;-46
2022/05/31 06:15:57;;;;;;;52.60;27.65;;;;;;;10.80;77.16;101184.44;4935613;29;20395;-46
2022/05/31 06:18:35;;;;;;;53.38;29.77;;;;;;;10.79;77.56;101187.84;4934564;29;20023;-44
2022/05/31 06:21:04;;;;;;;50.78;28.65;;;;;;;10.70;79.31;101192.69;4935483;29;20080;-45
2022/05/31 06:23:29;;;;;;;53.30;28.85;;;;;;;10.62;76.97;101188.97;4935415;29;20114;-44
2022/05/31 06:25:56;;;;;;;54.05;27.85;;;;;;;10.54;77.65;101181.84;4934897;29;20114;-45
2022/05/31 06:28:22;;;;;;;54.40;28.40;;;;;;;10.53;78.11;101185.28;4935337;29;20106;-46
2022/05/31 06:30:47;;;;;;;53.47;27.85;;;;;;;10.51;77.75;101186.91;4935655;29;20110;-45
2022/05/31 06:33:12;;;;;;;53.03;27.88;;;;;;;10.55;77.89;101187.88;4934837;29;20043;-45
2022/05/31 06:35:37;;;;;;;46.13;26.90;;;;;;;10.65;78.14;101187.38;4935167;29;20357;-44
2022/05/31 06:38:03;;;;;;;59.95;30.63;;;;;;;10.72;77.69;101178.16;4934642;29;20031;-45
2022/05/31 06:40:29;;;;;;;55.03;29.55;;;;;;;10.86;77.54;101189.81;4935314;29;20079;-45
2022/05/31 06:42:54;;;;;;;57.60;29.70;;;;;;;10.98;78.09;101194.50;4935321;29;20115;-45
2022/05/31 06:45:19;;;;;;;51.03;28.20;;;;;;;11.01;76.24;101193.72;4934557;29;20637;-45
2022/05/31 06:47:45;;;;;;;60.22;28.60;;;;;;;11.04;76.18;101193.84;4935424;29;20028;-45
2022/05/31 06:50:12;;;;;;;56.53;28.48;;;;;;;11.05;76.34;101190.41;4935214;29;20039;-45
2022/05/31 06:58:05;;;;;;;55.15;27.50;;;;;;;11.08;75.70;101190.53;4935773;29;20125;-44
2022/05/31 07:00:30;;;;;;;54.25;27.92;;;;;;;11.05;75.91;101185.25;4934215;29;20119;-47
2022/05/31 07:02:59;;;;;;;56.78;28.23;;;;;;;11.08;76.46;101195.69;4935277;29;20727;-44
2022/05/31 07:05:25;;;;;;;49.17;26.52;;;;;;;11.11;75.36;101185.47;4935071;29;20105;-44
2022/05/31 07:07:54;;;;;;;44.97;24.92;;;;;;;11.21;74.85;101189.25;4934762;29;20107;-45
2022/05/31 07:10:21;;;;;;;47.35;24.90;;;;;;;11.31;73.51;101192.97;4935951;29;20095;-47
2022/05/31 07:12:46;;;;;;;53.70;25.50;;;;;;;11.42;73.09;101191.63;4938723;29;20028;-42
2022/05/31 07:15:13;;;;;;;53.28;25.98;;;;;;;11.65;73.37;101188.88;4937931;29;20514;-45
2022/05/31 07:17:38;;;;;;;44.42;24.77;;;;;;;11.82;71.89;101186.81;4938280;29;20068;-43
2022/05/31 07:20:06;;;;;;;38.30;22.30;;;;;;;12.06;70.94;101185.81;4938471;29;20047;-43
2022/05/31 07:22:31;;;;;;;36.42;18.58;;;;;;;12.31;69.03;101192.56;4937509;29;20039;-46
2022/05/31 07:24:57;;;;;;;38.38;19.52;;;;;;;12.59;69.63;101183.84;4938572;29;20031;-46
2022/05/31 07:27:22;;;;;;;31.45;16.98;;;;;;;12.82;66.95;101184.44;4937635;29;20027;-44
2022/05/31 07:29:47;;;;;;;27.90;15.73;;;;;;;12.88;63.77;101185.44;4938298;29;20027;-44
2022/05/31 07:32:13;;;;;;;27.40;14.60;;;;;;;12.87;62.67;101183.69;4938591;29;20040;-44
2022/05/31 07:34:38;;;;;;;28.90;14.30;;;;;;;12.83;61.91;101188.78;4937418;29;20399;-45
2022/05/31 07:37:04;;;;;;;30.42;15.25;;;;;;;12.90;63.20;101189.81;4938290;29;20428;-44
2022/05/31 07:39:29;;;;;;;27.58;14.52;;;;;;;12.96;62.90;101186.50;4937996;29;20030;-44
2022/05/31 07:41:56;;;;;;;32.47;16.45;;;;;;;12.98;62.78;101179.66;4937369;29;20031;-44
2022/05/31 07:44:22;;;;;;;31.15;15.30;;;;;;;13.05;62.63;101178.09;4937758;29;20388;-45
2022/05/31 07:46:48;;;;;;;26.75;14.13;;;;;;;13.14;62.36;101174.03;4938252;29;20495;-45
2022/05/31 07:49:14;;;;;;;30.40;14.63;;;;;;;13.11;60.75;101188.59;4937455;29;20020;-43
2022/05/31 07:51:40;;;;;;;32.00;15.43;;;;;;;13.10;61.36;101179.94;4937932;29;20547;-45
2022/05/31 07:54:05;;;;;;;34.55;15.48;;;;;;;13.12;61.68;101174.84;4938044;29;20024;-44
2022/05/31 07:56:31;;;;;;;30.23;15.02;;;;;;;13.21;62.40;101169.88;4937011;29;20054;-44
2022/05/31 07:58:56;;;;;;;31.35;15.18;;;;;;;13.39;61.94;101169.47;4937814;29;20111;-44
2022/05/31 08:01:25;;;;;;;27.48;13.85;;;;;;;13.66;61.74;101163.16;4937579;29;20459;-43
2022/05/31 08:03:50;;;;;;;30.92;12.88;;;;;;;13.81;58.65;101165.19;4937267;29;20027;-44
2022/05/31 08:06:18;;;;;;;23.92;11.60;;;;;;;13.98;57.96;101170.72;4937744;29;20039;-47
2022/05/31 08:08:44;;;;;;;29.67;12.23;;;;;;;14.16;58.73;101165.94;4937478;29;20035;-45
2022/05/31 08:11:13;;;;;;;26.05;12.10;;;;;;;14.34;56.80;101164.53;4937057;29;20440;-45
2022/05/31 08:13:39;;;;;;;26.58;13.73;;;;;;;14.43;56.82;101161.25;4937308;29;20035;-44
2022/05/31 08:16:06;;;;;;;25.75;12.05;;;;;;;14.52;55.55;101163.16;4937798;29;20028;-44
2022/05/31 08:18:32;;;;;;;22.58;12.00;;;;;;;14.72;56.38;101159.22;4936802;29;20066;-47
2022/05/31 08:21:16;;;;;;;24.92;11.70;;;;;;;15.07;58.76;101163.28;4936925;29;20047;-44
2022/05/31 08:23:42;;;;;;;24.48;11.52;;;;;;;15.17;54.55;101159.06;4935945;28;20032;-43
2022/05/31 08:26:07;;;;;;;21.50;11.38;;;;;;;15.32;54.79;101154.13;4937244;29;20043;-43
2022/05/31 08:28:33;;;;;;;30.15;12.65;;;;;;;15.31;53.43;101147.16;4937112;29;20028;-44
2022/05/31 08:31:03;;;;;;;24.23;12.48;;;;;;;15.38;54.47;101149.03;4936602;29;20110;-45
2022/05/31 08:33:29;;;;;;;28.17;12.70;;;;;;;15.47;53.77;101148.28;4937115;29;20035;-44
2022/05/31 08:35:55;;;;;;;22.60;12.27;;;;;;;15.64;55.49;101141.59;4937252;29;20361;-44
2022/05/31 08:38:21;;;;;;;24.35;11.93;;;;;;;15.83;53.12;101148.78;4936416;29;20068;-45
2022/05/31 08:41:18;;;;;;;29.20;12.25;;;;;;;15.88;55.59;101145.41;4937142;29;20408;-45
2022/05/31 08:43:46;;;;;;;;;;;;;;;16.09;56.92;101142.19;4928200;29;20055;-48
2022/05/31 08:46:32;;;;;;;27.50;14.63;;;;;;;16.29;53.42;101144.13;4936344;29;20021;-44
2022/05/31 08:49:07;;;;;;;26.83;12.65;;;;;;;16.33;51.76;101153.69;4936966;29;20039;-44
2022/05/31 08:51:54;;;;;;;23.75;12.13;;;;;;;16.26;51.92;101150.16;4936892;29;20031;-44
2022/05/31 08:57:35;;;;;;;21.77;10.57;;;;;;;16.10;49.66;101156.94;4936805;29;20038;-45
2022/05/31 09:00:05;;;;;;;91.38;16.77;;;;;;;15.66;50.59;101154.63;4935991;29;20399;-45
2022/05/31 09:02:37;;;;;;;22.13;11.13;;;;;;;15.35;52.35;101159.38;4936753;29;20028;-44
2022/05/31 09:05:08;;;;;;;23.45;10.55;;;;;;;15.41;54.17;101151.66;4936495;29;20027;-44
2022/05/31 09:07:47;;;;;;;35.42;12.55;;;;;;;15.72;54.70;101146.03;4935679;29;20452;-47
2022/05/31 09:10:15;;;;;;;25.20;11.82;;;;;;;15.86;50.15;101141.03;4936846;29;20031;-45
2022/05/31 09:12:51;;;;;;;21.38;10.85;;;;;;;15.78;53.48;101149.56;4936517;29;20446;-44
2022/05/31 09:15:23;;;;;;;19.23;11.27;;;;;;;15.86;51.95;101149.69;4936648;29;20059;-46
2022/05/31 09:18:04;;;;;;;17.58;10.30;;;;;;;16.04;51.78;101136.06;4936565;29;20035;-44
2022/05/31 09:20:46;;;;;;;23.60;11.65;;;;;;;16.33;52.68;101145.88;4935266;29;20060;-44
2022/05/31 09:23:16;;;;;;;19.55;9.70;;;;;;;16.28;47.69;101150.16;4936598;29;20098;-44
2022/05/31 09:25:43;;;;;;;17.80;10.07;;;;;;;16.35;49.11;101151.13;4936114;29;20039;-48
2022/05/31 09:28:25;;;;;;;23.05;9.48;;;;;;;16.57;51.48;101147.03;4935576;29;20032;-44
2022/05/31 09:30:52;;;;;;;20.30;11.65;;;;;;;16.63;50.54;101142.75;4936253;29;20036;-45
2022/05/31 09:33:37;;;;;;;23.00;10.82;;;;;;;16.87;51.74;101140.34;4936040;29;20075;-45
2022/05/31 09:36:20;;;;;;;19.52;9.98;;;;;;;17.22;48.98;101147.56;4935378;29;20388;-44
2022/05/31 09:38:51;;;;;;;17.35;10.52;;;;;;;17.54;47.84;101139.09;4935919;29;20388;-44
2022/05/31 09:41:24;;;;;;;23.10;10.98;;;;;;;17.57;46.92;101149.53;4935372;29;20042;-44
2022/05/31 09:44:20;;;;;;;27.23;11.77;;;;;;;17.65;48.68;101145.25;4936037;29;20023;-44
2022/05/31 09:46:56;;;;;;;20.05;11.02;;;;;;;17.56;46.93;101148.66;4936022;29;20020;-44
2022/05/31 09:49:43;;;;;;;30.37;12.17;;;;;;;17.34;46.35;101141.56;4934935;29;20023;-45
2022/05/31 09:52:19;;;;;;;18.92;11.10;;;;;;;17.48;47.53;101142.53;4936246;29;20126;-44
2022/05/31 09:58:08;;;;;;;22.55;11.93;;;;;;;17.81;45.45;101132.28;4936168;29;20478;-44
2022/05/31 10:00:38;;;;;;;;;;;;;;;18.17;48.90;101135.91;4936191;29;20031;-45
2022/05/31 10:03:14;;;;;;;24.20;13.95;;;;;;;18.71;47.26;101123.81;4935112;28;19915;-45
2022/05/31 10:05:41;;;;;;;25.48;14.07;;;;;;;18.72;44.36;101122.94;4935522;29;20396;-44
2022/05/31 10:08:28;;;;;;;;;;;;;;;19.03;47.30;101135.13;4936077;29;20444;-45
2022/05/31 10:10:54;;;;;;;20.25;12.30;;;;;;;19.36;42.95;101133.34;4935235;29;19922;-44
2022/05/31 10:13:38;;;;;;;28.95;13.80;;;;;;;19.34;44.87;101129.88;4935592;29;20023;-45
2022/05/31 10:16:22;;;;;;;25.88;13.50;;;;;;;19.55;43.82;101131.56;4935072;29;20099;-46
2022/05/31 10:19:17;;;;;;;21.60;11.73;;;;;;;21.21;43.37;101121.81;4935637;29;20035;-44
2022/05/31 10:21:43;;;;;;;20.52;12.05;;;;;;;22.60;37.44;101123.56;4932652;29;20058;-45
2022/05/31 10:24:08;;;;;;;19.85;11.82;;;;;;;23.37;36.80;101124.00;4934745;29;20035;-46
2022/05/31 10:26:38;;;;;;;23.90;12.05;;;;;;;23.31;34.37;101123.22;4935284;29;20109;-45
2022/05/31 10:29:12;;;;;;;24.58;12.52;;;;;;;23.37;35.73;101131.88;4935569;29;20075;-46
2022/05/31 10:31:50;;;;;;;20.75;12.13;;;;;;;23.15;36.15;101132.28;4934550;29;20028;-48
2022/05/31 10:34:33;;;;;;;20.35;11.95;;;;;;;22.73;37.05;101124.25;4935567;29;20028;-45
2022/05/31 10:37:00;;;;;;;21.00;11.63;;;;;;;22.06;34.75;101126.97;4935535;29;20016;-49
2022/05/31 10:39:29;;;;;;;22.20;12.27;;;;;;;21.07;36.50;101133.31;4934218;29;20427;-45
2022/05/31 10:41:57;;;;;;;21.63;12.27;;;;;;;19.94;38.48;101129.69;4935609;29;20067;-45
2022/05/31 10:44:35;;;;;;;18.02;11.63;;;;;;;19.42;40.17;101123.75;4934425;29;20027;-45
2022/05/31 10:47:03;;;;;;;23.30;11.75;;;;;;;19.30;39.92;101120.31;4939080;29;20031;-45
2022/05/31 10:49:31;;;;;;;30.05;12.18;;;;;;;18.97;40.02;101117.75;4938983;29;20031;-45
2022/05/31 10:52:06;;;;;;;24.67;12.82;;;;;;;18.76;42.17;101119.47;4938297;29;20083;-45
2022/05/31 10:55:09;;;;;;;24.55;12.88;;;;;;;18.92;43.70;101114.25;4939042;29;20036;-44
2022/05/31 10:57:50;;;;;;;25.70;13.15;;;;;;;18.74;43.20;101115.09;4938845;29;20059;-46
2022/05/31 11:00:51;;;;;;;24.98;14.02;;;;;;;18.69;43.50;101109.00;4938189;29;20038;-45
2022/05/31 11:03:25;;;;;;;27.40;14.10;;;;;;;18.43;44.36;101115.94;4932054;29;20044;-44
2022/05/31 11:05:55;;;;;;;28.52;14.52;;;;;;;18.20;43.13;101109.81;4938160;29;20028;-45
2022/05/31 11:11:29;;;;;;;29.77;15.15;;;;;;;17.71;46.44;101111.34;4938818;29;20091;-44
2022/05/31 11:14:11;;;;;;;26.02;14.15;;;;;;;17.82;46.50;101121.84;4938171;29;20059;-45
2022/05/31 11:17:07;;;;;;;25.17;14.75;;;;;;;17.77;44.92;101127.03;4938485;29;20070;-46
2022/05/31 11:19:56;;;;;;;29.15;15.50;;;;;;;17.56;45.97;101122.59;4937651;29;20055;-45
2022/05/31 11:22:36;;;;;;;26.30;13.93;;;;;;;17.29;45.39;101133.75;4938420;29;20027;-45
2022/05/31 11:25:12;;;;;;;21.73;12.98;;;;;;;17.00;46.55;101134.38;4938402;29;20607;-44
2022/05/31 11:28:17;;;;;;;23.77;14.30;;;;;;;16.85;47.15;101131.63;4937723;29;20091;-47
2022/05/31 11:30:45;;;;;;;27.58;14.25;;;;;;;16.61;47.91;101133.16;4938277;29;20035;-45
2022/05/31 11:33:19;;;;;;;27.73;14.00;;;;;;;16.46;48.37;101129.56;4938539;29;20055;-44
2022/05/31 11:36:09;;;;;;;24.45;13.98;;;;;;;16.47;48.71;101135.63;4937469;29;20047;-45
2022/05/31 11:38:47;;;;;;;29.67;14.63;;;;;;;16.49;49.01;101127.84;4938253;29;20087;-45
2022/05/31 11:41:21;;;;;;;23.00;13.18;;;;;;;16.66;50.60;101131.47;4937665;29;20023;-47
2022/05/31 11:44:14;;;;;;;25.63;13.65;;;;;;;16.76;50.55;101135.91;4938350;29;20031;-44
2022/05/31 11:46:51;;;;;;;27.42;13.73;;;;;;;16.70;48.36;101133.25;4938123;29;20032;-45